Time;durP1;ratioP1;P1;durP2;ratioP2;P2;SDS_P1;SDS_P2;PMS_P1;PMS_P2;Temp;Humidity;BMP_temperature;BMP_pressure;BME280_temperature;BME280_humidity;BME280_pressure;Samples;Min_cycle;Max_cycle;Signal;HPM_P1;HPM_P2
2022/11/19 00:01:20;;;;;;;;;;;;;;;2.82;100.00;98662.53;4390856;32;34823;-77
2022/11/19 00:04:06;;;;;;;;;;;;;;;2.51;100.00;98675.47;4397027;32;35569;-78
2022/11/19 00:06:52;;;;;;;;;;;;;;;2.68;100.00;98689.41;4402111;32;34953;-77
2022/11/19 00:09:39;;;;;;;;;;;;;;;2.37;100.00;98686.12;4403165;32;35503;-77
2022/11/19 00:15:29;;;;;;;;;;;;;;;2.35;100.00;98694.50;4402433;32;35116;-77
2022/11/19 00:18:15;;;;;;;;;;;;;;;2.30;100.00;98689.09;4393727;32;35131;-77
2022/11/19 00:21:05;;;;;;;;;;;;;;;2.33;100.00;98702.06;4401675;32;34921;-78
2022/11/19 00:23:54;;;;;;;;;;;;;;;1.97;100.00;98714.97;4400852;32;34849;-78
2022/11/19 00:26:40;;;;;;;;;;;;;;;1.93;100.00;98720.09;4402538;32;35242;-77
2022/11/19 00:29:26;;;;;;;;;;;;;;;2.13;100.00;98713.78;4390382;32;34401;-76
2022/11/19 00:32:12;;;;;;;;;;;;;;;2.07;100.00;98714.09;4390577;32;34901;-78
2022/11/19 00:34:58;;;;;;;;;;;;;;;1.88;100.00;98716.62;4403341;32;34881;-77
2022/11/19 00:37:44;;;;;;;;;;;;;;;1.95;100.00;98722.53;4401911;32;36253;-77
2022/11/19 00:40:29;;;;;;;;;;;;;;;2.20;100.00;98713.50;4391434;32;34500;-77
2022/11/19 00:44:02;;;;;;;;;;;;;;;1.89;100.00;98713.66;4388918;32;34039;-77
2022/11/19 00:46:23;;;;;;;;;;;;;;;1.75;100.00;98708.03;4378868;32;34870;-77
2022/11/19 00:49:10;;;;;;;;;;;;;;;1.68;100.00;98715.63;4390778;32;34984;-77
2022/11/19 00:51:55;;;;;;;;;;;;;;;2.32;100.00;98721.28;4417664;32;37282;-76
2022/11/19 00:54:41;;;;;;;;;;;;;;;2.04;100.00;98720.87;4401465;32;33151;-78
2022/11/19 00:57:27;;;;;;;;;;;;;;;2.43;100.00;98730.94;4391395;32;34906;-77
2022/11/19 01:00:13;;;;;;;;;;;;;;;1.99;100.00;98739.81;4405684;32;35291;-77
2022/11/19 01:02:59;;;;;;;;;;;;;;;1.75;100.00;98750.44;4418129;32;35773;-77
2022/11/19 01:05:45;;;;;;;;;;;;;;;1.94;100.00;98756.84;4417969;32;33768;-76
2022/11/19 01:08:31;;;;;;;;;;;;;;;1.62;100.00;98780.69;4408846;32;34952;-76
2022/11/19 01:11:18;;;;;;;;;;;;;;;1.55;100.00;98789.09;4389415;32;36228;-77
2022/11/19 01:14:04;;;;;;;;;;;;;;;1.72;100.00;98800.41;4389173;32;34837;-76
2022/11/19 01:16:51;;;;;;;;;;;;;;;1.45;100.00;98800.72;4402369;32;34408;-76
2022/11/19 01:19:36;;;;;;;;;;;;;;;1.28;100.00;98809.09;4402721;32;35812;-77
2022/11/19 01:22:23;;;;;;;;;;;;;;;1.52;100.00;98817.44;4401374;32;34913;-77
2022/11/19 01:25:09;;;;;;;;;;;;;;;1.15;100.00;98812.34;4402252;32;35767;-77
2022/11/19 01:27:56;;;;;;;;;;;;;;;1.00;100.00;98821.22;4412443;32;33980;-77
2022/11/19 01:30:42;;;;;;;;;;;;;;;0.97;100.00;98831.72;4388924;32;34834;-77
2022/11/19 01:33:28;;;;;;;;;;;;;;;0.94;100.00;98830.41;4403152;32;35169;-76
2022/11/19 01:36:21;;;;;;;;;;;;;;;1.00;100.00;98825.81;4391309;32;35434;-77
2022/11/19 01:39:07;;;;;;;;;;;;;;;0.86;100.00;98826.31;4390766;32;34157;-76
2022/11/19 01:41:53;;;;;;;;;;;;;;;0.86;100.00;98820.94;4397174;32;34849;-77
2022/11/19 01:44:54;;;;;;;;;;;;;;;0.96;100.00;98819.31;4403086;32;34775;-77
2022/11/19 01:47:40;;;;;;;;;;;;;;;0.97;100.00;98823.62;4403170;32;34974;-77
2022/11/19 01:50:26;;;;;;;;;;;;;;;0.94;100.00;98829.56;4391862;32;33882;-77
2022/11/19 01:53:12;;;;;;;;;;;;;;;0.80;100.00;98832.78;4389155;32;34936;-77
2022/11/19 01:56:02;;;;;;;;;;;;;;;0.81;100.00;98841.69;4392611;32;35236;-77
2022/11/19 01:58:50;;;;;;;;;;;;;;;0.72;100.00;98840.59;4392875;32;34947;-77
2022/11/19 02:01:36;;;;;;;;;;;;;;;0.77;100.00;98854.91;4403616;32;34192;-77
2022/11/19 02:04:22;;;;;;;;;;;;;;;0.50;100.00;98846.19;4391195;32;34885;-76
2022/11/19 02:07:08;;;;;;;;;;;;;;;0.45;100.00;98863.13;4380306;32;35007;-77
2022/11/19 02:09:55;;;;;;;;;;;;;;;0.62;100.00;98876.41;4403398;32;34680;-76
2022/11/19 02:12:46;;;;;;;;;;;;;;;0.60;100.00;98894.75;4404368;32;35087;-76
2022/11/19 02:15:36;;;;;;;;;;;;;;;0.52;100.00;98895.25;4405371;32;34960;-77
2022/11/19 02:18:21;;;;;;;;;;;;;;;0.45;100.00;98890.88;4394518;32;35835;-76
2022/11/19 02:21:11;;;;;;;;;;;;;;;0.63;100.00;98891.53;4401640;32;34919;-77
2022/11/19 02:24:03;;;;;;;;;;;;;;;0.54;100.00;98880.44;4390923;32;34127;-77
2022/11/19 02:27:07;;;;;;;;;;;;;;;0.55;100.00;98883.94;4403423;32;35737;-76
2022/11/19 02:29:53;;;;;;;;;;;;;;;0.77;100.00;98886.44;4402827;32;35986;-76
2022/11/19 02:32:43;;;;;;;;;;;;;;;0.76;100.00;98904.50;4409266;32;34539;-77
2022/11/19 02:35:33;;;;;;;;;;;;;;;0.45;100.00;98912.44;4379407;32;33542;-76
2022/11/19 02:38:22;;;;;;;;;;;;;;;0.39;100.00;98928.88;4391205;32;35628;-77
2022/11/19 02:47:33;;;;;;;;;;;;;;;0.36;100.00;98951.75;4393385;32;34010;-76
2022/11/19 02:50:57;;;;;;;;;;;;;;;0.17;100.00;98962.16;4394801;32;36630;-76
2022/11/19 02:53:46;;;;;;;;;;;;;;;0.07;100.00;98958.59;4345198;32;35106;-77
2022/11/19 02:56:46;;;;;;;;;;;;;;;0.28;100.00;98960.34;4345434;32;34890;-76
2022/11/19 03:05:46;;;;;;;;;;;;;;;0.95;100.00;98952.59;4393747;32;35813;-77
2022/11/19 03:08:32;;;;;;;;;;;;;;;0.56;100.00;98975.31;4401179;32;35084;-77
2022/11/19 03:11:22;;;;;;;;;;;;;;;0.58;100.00;98980.47;4395264;32;34289;-77
2022/11/19 03:17:16;;;;;;;;;;;;;;;1.62;100.00;98989.44;4403361;32;36242;-76
2022/11/19 03:20:17;;;;;;;;;;;;;;;1.30;100.00;98997.75;4391877;32;34944;-76
2022/11/19 03:23:10;;;;;;;;;;;;;;;1.10;100.00;98998.50;4391848;32;34091;-76
2022/11/19 03:25:58;;;;;;;;;;;;;;;1.22;100.00;98996.34;4389126;32;34873;-77
2022/11/19 03:28:44;;;;;;;;;;;;;;;1.01;100.00;98994.69;4392158;32;34685;-76
2022/11/19 03:31:32;;;;;;;33.25;14.23;;;;;;;1.19;100.00;99001.47;4402531;32;34973;-76
2022/11/19 03:34:19;;;;;;;40.95;15.68;;;;;;;0.47;100.00;98998.47;4390861;32;35239;-76
2022/11/19 03:37:07;;;;;;;34.40;14.80;;;;;;;0.38;100.00;99014.31;4415985;32;34755;-76
2022/11/19 03:39:55;;;;;;;37.28;15.80;;;;;;;0.41;100.00;99013.78;4393757;32;34875;-76
2022/11/19 03:42:43;;;;;;;34.55;14.65;;;;;;;0.23;100.00;99011.50;4395692;32;35565;-76
2022/11/19 03:45:39;;;;;;;34.95;15.23;;;;;;;0.38;100.00;99025.09;4407038;32;33899;-76
2022/11/19 03:48:27;;;;;;;34.50;15.80;;;;;;;0.35;100.00;99024.81;4402838;32;34603;-76
2022/11/19 03:51:17;;;;;;;36.55;15.50;;;;;;;0.98;100.00;99019.50;4418158;32;35051;-76
2022/11/19 03:54:03;;;;;;;29.63;13.02;;;;;;;1.38;100.00;99031.50;4401197;32;34964;-76
2022/11/19 03:56:50;;;;;;;35.08;14.40;;;;;;;1.61;100.00;99036.44;4400732;32;33813;-76
2022/11/19 03:59:36;;;;;;;31.58;13.43;;;;;;;1.45;100.00;99035.59;4391650;32;34602;-76
2022/11/19 04:02:22;;;;;;;31.83;13.62;;;;;;;1.90;100.00;99047.53;4400867;32;34589;-76
2022/11/19 04:05:08;;;;;;;35.63;14.20;;;;;;;1.55;100.00;99046.41;4401188;32;35779;-76
2022/11/19 04:07:54;;;;;;;34.05;13.82;;;;;;;1.34;100.00;99032.03;4401881;32;36116;-76
2022/11/19 04:10:41;;;;;;;34.28;14.30;;;;;;;2.04;100.00;99045.12;4394810;32;35549;-76
2022/11/19 04:13:27;;;;;;;31.60;14.00;;;;;;;1.23;100.00;99065.47;4408631;32;35790;-76
2022/11/19 04:16:14;;;;;;;28.77;12.90;;;;;;;1.85;100.00;99068.34;4401234;32;34422;-76
2022/11/19 04:18:59;;;;;;;33.83;14.55;;;;;;;1.78;100.00;99074.81;4402643;32;34941;-75
2022/11/19 04:21:46;;;;;;;29.23;13.30;;;;;;;0.85;100.00;99066.62;4381134;32;34602;-76
2022/11/19 04:24:32;;;;;;;29.23;13.60;;;;;;;1.66;100.00;99074.25;4401610;32;33805;-76
2022/11/19 04:27:18;;;;;;;28.98;13.15;;;;;;;0.89;100.00;99094.72;4401960;32;35065;-76
2022/11/19 04:30:05;;;;;;;33.35;13.70;;;;;;;0.69;100.00;99111.56;4400324;32;33826;-76
2022/11/19 04:32:51;;;;;;;;;;;;;;;0.83;100.00;99112.75;4402275;32;34719;-76
2022/11/19 04:35:37;;;;;;;;;;;;;;;0.60;100.00;99111.25;4390336;32;35260;-76
2022/11/19 04:38:24;;;;;;;;;;;;;;;0.73;100.00;99112.66;4415631;32;35412;-76
2022/11/19 04:41:09;;;;;;;;;;;;;;;0.60;100.00;99113.94;4408082;32;34018;-76
2022/11/19 04:43:56;;;;;;;;;;;;;;;1.53;100.00;99126.03;4402165;32;35771;-76
2022/11/19 04:46:42;;;;;;;;;;;;;;;1.49;100.00;99130.38;4404991;32;35050;-76
2022/11/19 04:49:28;;;;;;;;;;;;;;;1.71;100.00;99135.59;4402344;32;35816;-76
2022/11/19 04:52:14;;;;;;;;;;;;;;;1.88;100.00;99146.97;4402833;32;33618;-76
2022/11/19 04:55:00;;;;;;;;;;;;;;;1.83;100.00;99151.56;4405496;32;34471;-76
2022/11/19 04:57:45;;;;;;;;;;;;;;;1.97;100.00;99163.47;4408618;32;35297;-76
2022/11/19 05:00:32;;;;;;;;;;;;;;;2.09;100.00;99182.97;4385998;32;35991;-76
2022/11/19 05:03:18;;;;;;;;;;;;;;;2.05;100.00;99176.47;4389179;32;34561;-76
2022/11/19 05:06:04;;;;;;;;;;;;;;;1.72;100.00;99189.31;4402872;32;36276;-76
2022/11/19 05:08:50;;;;;;;;;;;;;;;2.46;100.00;99188.19;4399332;32;34752;-76
2022/11/19 05:11:36;;;;;;;;;;;;;;;2.51;100.00;99176.56;4402919;32;35852;-76
2022/11/19 05:14:22;;;;;;;;;;;;;;;2.83;100.00;99186.31;4401190;32;34093;-76
2022/11/19 05:17:14;;;;;;;;;;;;;;;2.13;100.00;99189.44;4402519;32;36419;-76
2022/11/19 05:20:01;;;;;;;;;;;;;;;2.27;100.00;99178.13;4402845;32;36096;-76
2022/11/19 05:22:47;;;;;;;;;;;;;;;1.42;100.00;99194.56;4389163;32;35726;-76
2022/11/19 05:25:32;;;;;;;;;;;;;;;1.28;100.00;99199.59;4388225;32;33722;-76
2022/11/19 05:28:18;;;;;;;;;;;;;;;0.67;100.00;99211.56;4402006;32;34976;-76
2022/11/19 05:31:17;;;;;;;;;;;;;;;0.30;100.00;99200.72;4401437;32;36220;-76
2022/11/19 05:34:03;;;;;;;;;;;;;;;0.39;100.00;99201.88;4401681;32;34997;-76
2022/11/19 05:36:49;;;;;;;;;;;;;;;0.70;100.00;99204.06;4393292;32;33525;-76
2022/11/19 05:39:35;;;;;;;35.13;13.62;;;;;;;0.54;100.00;99208.47;4389853;32;34858;-77
2022/11/19 05:42:21;;;;;;;33.60;13.52;;;;;;;0.95;100.00;99211.53;4399193;32;34987;-75
2022/11/19 05:45:08;;;;;;;35.65;15.27;;;;;;;0.35;100.00;99216.94;4401147;32;34396;-76
2022/11/19 05:47:54;;;;;;;34.22;14.90;;;;;;;-0.17;100.00;99228.22;4393198;32;34022;-76
2022/11/19 05:50:41;;;;;;;37.55;15.18;;;;;;;0.21;100.00;99224.63;4390141;32;35521;-76
2022/11/19 05:53:27;;;;;;;33.20;15.10;;;;;;;-0.50;100.00;99245.28;4387379;32;34892;-75
2022/11/19 05:56:13;;;;;;;37.92;15.02;;;;;;;-0.62;100.00;99242.69;4398083;32;36296;-76
2022/11/19 05:58:59;;;;;;;38.83;16.27;;;;;;;-0.40;100.00;99250.78;4406626;32;34037;-76
2022/11/19 06:01:46;;;;;;;38.85;16.92;;;;;;;-0.40;100.00;99249.97;4400503;32;34764;-76
2022/11/19 06:04:32;;;;;;;42.67;17.75;;;;;;;-0.41;100.00;99262.63;4389670;32;34815;-76
2022/11/19 06:07:18;;;;;;;37.55;17.30;;;;;;;-0.09;100.00;99262.78;4385585;32;34118;-76
2022/11/19 06:10:05;;;;;;;39.22;16.58;;;;;;;-0.27;100.00;99277.34;4393433;32;33884;-76
2022/11/19 06:12:51;;;;;;;40.92;19.23;;;;;;;-0.31;100.00;99273.53;4396316;32;35580;-76
2022/11/19 06:15:37;;;;;;;37.15;15.65;;;;;;;-0.64;100.00;99279.78;4403493;32;34623;-76
2022/11/19 06:18:23;;;;;;;38.92;17.42;;;;;;;-0.84;100.00;99284.87;4416136;32;34644;-75
2022/11/19 06:21:09;;;;;;;38.95;16.15;;;;;;;-0.92;100.00;99294.97;4401297;32;33792;-75
2022/11/19 06:23:57;;;;;;;42.13;17.73;;;;;;;-0.81;100.00;99295.13;4394016;32;34633;-76
2022/11/19 06:26:44;;;;;;;38.28;15.18;;;;;;;-0.64;100.00;99301.31;4406372;32;35077;-75
2022/11/19 06:29:30;;;;;;;42.38;17.10;;;;;;;-0.28;100.00;99304.53;4406506;32;34241;-75
2022/11/19 06:32:16;;;;;;;37.85;15.77;;;;;;;-0.26;100.00;99299.72;4403766;32;34217;-75
2022/11/19 06:35:03;;;;;;;36.85;15.13;;;;;;;-0.14;100.00;99302.28;4391307;32;34671;-76
2022/11/19 06:37:49;;;;;;;40.50;17.62;;;;;;;-0.02;100.00;99303.00;4401550;32;35530;-75
2022/11/19 06:40:35;;;;;;;41.70;17.67;;;;;;;-0.22;100.00;99308.94;4402570;32;34190;-75
2022/11/19 06:43:21;;;;;;;41.47;19.62;;;;;;;-0.27;100.00;99314.25;4402285;32;34321;-75
2022/11/19 06:46:08;;;;;;;42.03;17.83;;;;;;;-0.59;100.00;99311.34;4402937;32;34628;-76
2022/11/19 06:48:54;;;;;;;37.97;16.60;;;;;;;-0.49;100.00;99324.94;4407483;32;34687;-76
2022/11/19 06:51:41;;;;;;;38.78;17.20;;;;;;;-0.17;100.00;99318.94;4409929;32;34900;-76
2022/11/19 06:54:27;;;;;;;43.22;19.25;;;;;;;-0.27;100.00;99322.31;4402917;32;34396;-76
2022/11/19 06:57:13;;;;;;;37.53;16.90;;;;;;;-0.34;100.00;99327.06;4401609;32;34645;-76
2022/11/19 06:59:59;;;;;;;35.88;16.85;;;;;;;-0.23;100.00;99326.12;4410155;32;34647;-76
2022/11/19 07:02:46;;;;;;;38.83;17.40;;;;;;;0.01;100.00;99321.38;4389438;32;35506;-76
2022/11/19 07:05:32;;;;;;;35.88;16.20;;;;;;;-0.23;100.00;99323.44;4416327;32;34295;-76
2022/11/19 07:08:19;;;;;;;37.28;16.62;;;;;;;0.11;100.00;99326.06;4402973;32;34568;-76
2022/11/19 07:11:24;;;;;;;32.28;14.35;;;;;;;0.08;100.00;99330.06;4401844;32;34950;-76
2022/11/19 07:14:11;;;;;;;37.10;16.52;;;;;;;0.03;100.00;99335.41;4398826;32;34687;-75
2022/11/19 07:16:57;;;;;;;34.35;16.37;;;;;;;-0.33;100.00;99332.19;4412656;32;33686;-75
2022/11/19 07:19:43;;;;;;;37.28;16.52;;;;;;;-0.26;100.00;99345.47;4404500;32;34714;-75
2022/11/19 07:22:30;;;;;;;35.38;17.48;;;;;;;-0.32;100.00;99335.69;4416059;32;34951;-75
2022/11/19 07:25:16;;;;;;;34.85;16.87;;;;;;;-0.40;100.00;99336.13;4391058;32;35398;-75
2022/11/19 07:28:02;;;;;;;36.50;15.07;;;;;;;-0.31;100.00;99345.44;4397358;32;33070;-76
2022/11/19 07:30:48;;;;;;;33.83;15.85;;;;;;;-0.31;100.00;99342.75;4389172;32;34607;-75
2022/11/19 07:33:37;;;;;;;32.45;14.48;;;;;;;-0.10;100.00;99352.72;4405212;32;34625;-76
2022/11/19 07:36:24;;;;;;;39.47;16.92;;;;;;;-0.01;100.00;99347.72;4402808;32;35422;-75
2022/11/19 07:39:10;;;;;;;37.92;16.48;;;;;;;-0.14;100.00;99356.16;4402063;32;33866;-76
2022/11/19 07:45:01;;;;;;;34.80;15.90;;;;;;;0.21;100.00;99342.38;4400065;32;35043;-75
2022/11/19 07:47:48;;;;;;;34.33;14.85;;;;;;;0.40;100.00;99332.09;4403005;32;35804;-76
2022/11/19 07:50:34;;;;;;;41.97;16.33;;;;;;;0.48;100.00;99337.00;4392632;32;34928;-76
2022/11/19 07:53:21;;;;;;;30.20;13.52;;;;;;;0.62;100.00;99340.94;4389084;32;35600;-77
2022/11/19 07:56:07;;;;;;;31.60;15.18;;;;;;;0.69;100.00;99338.06;4379698;32;34945;-77
2022/11/19 07:58:54;;;;;;;32.70;14.80;;;;;;;0.58;100.00;99337.13;4372781;32;34163;-77
2022/11/19 08:01:40;;;;;;;35.97;16.08;;;;;;;0.99;100.00;99352.94;4388824;32;32577;-77
2022/11/19 08:04:27;;;;;;;33.25;13.45;;;;;;;0.79;100.00;99348.13;4377773;32;34757;-77
2022/11/19 08:07:13;;;;;;;31.45;13.77;;;;;;;1.64;100.00;99349.16;4388045;32;33864;-77
2022/11/19 08:10:00;;;;;;;33.72;13.38;;;;;;;1.80;100.00;99344.69;4388829;32;34008;-78
2022/11/19 08:13:01;;;;;;;29.48;13.38;;;;;;;2.79;100.00;99342.12;4389314;32;32794;-77
2022/11/19 08:15:48;;;;;;;33.40;14.35;;;;;;;2.95;100.00;99348.41;4373645;32;33345;-72
2022/11/19 08:18:34;;;;;;;32.67;14.27;;;;;;;2.91;100.00;99353.56;4389751;32;34747;-71
2022/11/19 08:21:20;;;;;;;32.78;14.40;;;;;;;2.98;100.00;99364.09;4381023;32;34163;-71
2022/11/19 08:24:07;;;;;;;32.72;15.15;;;;;;;1.96;100.00;99378.00;4388633;32;33769;-72
2022/11/19 08:26:54;;;;;;;34.20;13.93;;;;;;;0.72;100.00;99383.41;4389892;32;35357;-71
2022/11/19 08:29:40;;;;;;;31.67;14.95;;;;;;;1.27;100.00;99387.75;4363477;32;783295;-71
2022/11/19 08:32:26;;;;;;;29.02;13.38;;;;;;;1.15;100.00;99378.19;4391010;32;34528;-71
2022/11/19 08:35:12;;;;;;;30.85;15.45;;;;;;;1.00;100.00;99381.56;4386721;32;34704;-71
2022/11/19 08:37:59;;;;;;;33.70;14.80;;;;;;;1.07;100.00;99396.44;4389004;32;35441;-70
2022/11/19 08:42:58;;;;;;;33.95;15.85;;;;;;;1.45;100.00;99399.22;4387569;32;33550;-71
2022/11/19 08:44:02;;;;;;;30.50;12.75;;;;;;;1.53;100.00;99396.88;4388806;32;34840;-70
2022/11/19 08:46:49;;;;;;;34.05;13.85;;;;;;;1.82;100.00;99401.94;4389449;32;34409;-71
2022/11/19 08:49:35;;;;;;;30.27;14.52;;;;;;;1.57;100.00;99405.28;4386012;32;34575;-71
2022/11/19 08:52:21;;;;;;;29.45;12.95;;;;;;;1.66;100.00;99414.53;4386870;32;34694;-71
2022/11/19 08:55:08;;;;;;;30.48;13.25;;;;;;;1.84;100.00;99399.00;4388612;32;35954;-71
2022/11/19 08:58:01;;;;;;;34.58;14.85;;;;;;;2.52;100.00;99380.19;4387046;32;33862;-71
2022/11/19 09:00:48;;;;;;;28.92;14.35;;;;;;;2.48;100.00;99396.97;4380702;32;33692;-71
2022/11/19 09:03:34;;;;;;;31.08;13.98;;;;;;;2.22;100.00;99449.25;4390037;32;36213;-71
2022/11/19 09:06:21;;;;;;;32.90;14.75;;;;;;;2.18;100.00;99453.56;4390550;32;33141;-71
2022/11/19 09:09:07;;;;;;;32.08;14.07;;;;;;;2.65;100.00;99472.50;4391266;32;33751;-71
2022/11/19 09:11:54;;;;;;;31.27;13.77;;;;;;;2.20;100.00;99475.75;4387624;32;34576;-71
2022/11/19 09:14:41;;;;;;;39.58;17.98;;;;;;;2.38;100.00;99482.63;4391251;32;34529;-70
2022/11/19 09:17:27;;;;;;;30.62;14.95;;;;;;;2.34;100.00;99473.41;4389535;32;34947;-70
2022/11/19 09:20:13;;;;;;;30.40;15.07;;;;;;;2.02;100.00;99472.38;4388319;32;36106;-70
2022/11/19 09:22:59;;;;;;;34.05;16.75;;;;;;;1.93;100.00;99470.41;4388871;32;34369;-71
2022/11/19 09:25:57;;;;;;;33.25;17.33;;;;;;;1.93;100.00;99481.22;4388518;32;35734;-70
2022/11/19 09:28:44;;;;;;;32.35;14.85;;;;;;;1.65;100.00;99469.66;4388812;32;35005;-70
2022/11/19 09:31:30;;;;;;;35.40;14.90;;;;;;;2.20;100.00;99471.16;4386321;32;34695;-70
2022/11/19 09:34:16;;;;;;;33.05;15.60;;;;;;;2.39;100.00;99474.25;4389152;32;34150;-70
2022/11/19 09:37:03;;;;;;;30.00;13.98;;;;;;;2.18;100.00;99470.59;4389586;32;34941;-70
2022/11/19 09:39:50;;;;;;;33.28;15.50;;;;;;;2.63;100.00;99461.13;4390355;32;35435;-70
2022/11/19 09:43:00;;;;;;;31.45;14.87;;;;;;;2.30;100.00;99480.41;4389953;32;34066;-71
2022/11/19 09:46:00;;;;;;;34.13;15.93;;;;;;;2.35;100.00;99489.34;4377465;32;34421;-71
2022/11/19 09:48:47;;;;;;;31.30;14.65;;;;;;;2.64;100.00;99502.50;4368702;32;35333;-70
2022/11/19 09:51:36;;;;;;;30.55;15.55;;;;;;;2.46;100.00;99501.06;4388509;32;34638;-70
2022/11/19 09:54:22;;;;;;;31.77;16.12;;;;;;;1.97;100.00;99512.06;4391054;32;33688;-71
2022/11/19 09:57:13;;;;;;;34.03;16.02;;;;;;;2.05;100.00;99506.19;4380171;32;32916;-70
2022/11/19 10:00:01;;;;;;;32.20;14.90;;;;;;;2.03;100.00;99508.31;4390247;32;33213;-71
2022/11/19 10:02:58;;;;;;;32.80;14.35;;;;;;;2.60;100.00;99507.63;4389848;32;35670;-71
2022/11/19 10:06:06;;;;;;;30.35;16.00;;;;;;;2.69;100.00;99489.03;4390570;32;34757;-70
2022/11/19 10:09:11;;;;;;;31.00;14.80;;;;;;;2.11;100.00;99486.22;4379246;32;33916;-71
2022/11/19 10:12:01;;;;;;;31.30;13.38;;;;;;;2.43;100.00;99488.06;4391580;32;35991;-71
2022/11/19 10:14:59;;;;;;;34.97;15.40;;;;;;;2.91;100.00;99486.16;4391289;32;34578;-71
2022/11/19 10:17:57;;;;;;;29.48;14.27;;;;;;;2.18;100.00;99481.41;4391137;32;33661;-71
2022/11/19 10:21:10;;;;;;;32.85;14.90;;;;;;;2.47;100.00;99481.84;4380052;32;35553;-71
2022/11/19 10:24:16;;;;;;;31.30;14.65;;;;;;;2.55;100.00;99485.97;4379881;32;36072;-71
2022/11/19 10:27:13;;;;;;;33.08;14.30;;;;;;;2.80;100.00;99473.66;4380533;32;33024;-71
2022/11/19 10:30:04;;;;;;;36.85;16.30;;;;;;;2.57;100.00;99470.28;4390511;32;34138;-70
2022/11/19 10:32:56;;;;;;;37.70;19.77;;;;;;;3.03;100.00;99464.28;4382211;32;34341;-70
2022/11/19 10:35:49;;;;;;;37.72;20.33;;;;;;;3.41;100.00;99462.19;4388912;32;33361;-70
2022/11/19 10:38:41;;;;;;;37.50;20.52;;;;;;;2.98;99.97;99462.34;4388085;32;33645;-70
2022/11/19 10:41:44;;;;;;;32.80;15.77;;;;;;;3.94;96.50;99473.66;4380473;32;34263;-71
2022/11/19 10:44:52;;;;;;;29.55;14.93;;;;;;;3.84;97.33;99474.44;4391064;32;35128;-70
2022/11/19 10:47:43;;;;;;;37.10;17.65;;;;;;;3.51;99.93;99468.47;4390181;32;34944;-70
2022/11/19 10:50:29;;;;;;;40.35;18.25;;;;;;;3.26;100.00;99473.81;4391619;32;34641;-70
2022/11/19 10:53:32;;;;;;;35.85;16.35;;;;;;;3.60;98.24;99471.44;4390342;32;34280;-70
2022/11/19 10:56:24;;;;;;;46.42;19.33;;;;;;;3.57;99.52;99461.16;4389666;32;36510;-70
2022/11/19 10:59:12;;;;;;;52.75;22.92;;;;;;;3.76;99.95;99466.87;4373680;32;34448;-70
2022/11/19 11:02:31;;;;;;;45.78;19.90;;;;;;;3.33;100.00;99472.50;4391528;32;33611;-70
2022/11/19 11:05:18;;;;;;;32.20;15.38;;;;;;;3.07;100.00;99479.69;4391386;32;34017;-70
2022/11/19 11:08:10;;;;;;;34.83;16.67;;;;;;;3.01;100.00;99488.88;4387729;32;34735;-70
2022/11/19 11:10:56;;;;;;;36.05;16.87;;;;;;;3.47;100.00;99489.06;4387737;32;34964;-70
2022/11/19 11:16:47;;;;;;;43.65;18.42;;;;;;;2.84;100.00;99494.50;4373124;32;34155;-71
2022/11/19 11:19:33;;;;;;;40.83;17.77;;;;;;;2.90;100.00;99496.16;4390207;32;34598;-70
2022/11/19 11:22:20;;;;;;;38.20;16.98;;;;;;;3.51;100.00;99506.37;4391184;32;36061;-70
2022/11/19 11:25:21;;;;;;;41.08;18.48;;;;;;;3.12;100.00;99512.22;4382760;32;34317;-70
2022/11/19 11:28:14;;;;;;;38.40;19.75;;;;;;;3.51;100.00;99516.41;4390621;32;34144;-70
2022/11/19 11:31:02;;;;;;;97.50;37.30;;;;;;;2.50;100.00;99517.56;4379497;32;33969;-70
2022/11/19 11:33:56;;;;;;;164.60;57.10;;;;;;;3.24;100.00;99514.69;4379963;32;36526;-70
2022/11/19 11:36:43;;;;;;;64.18;27.20;;;;;;;2.75;100.00;99512.31;4390165;32;34378;-70
2022/11/19 11:39:34;;;;;;;43.03;19.25;;;;;;;2.82;100.00;99512.09;4389201;32;34904;-70
2022/11/19 11:42:22;;;;;;;109.03;41.10;;;;;;;2.66;100.00;99505.78;4381951;32;34297;-69
2022/11/19 11:45:20;;;;;;;47.95;21.95;;;;;;;3.23;100.00;99496.03;4379556;32;35293;-70
2022/11/19 11:48:13;;;;;;;34.92;15.88;;;;;;;2.87;100.00;99501.28;4389947;32;33105;-70
2022/11/19 11:50:59;;;;;;;35.88;16.77;;;;;;;2.97;100.00;99495.12;4388566;32;32602;-70
2022/11/19 11:54:02;;;;;;;48.05;21.10;;;;;;;2.70;100.00;99496.03;4389877;32;34502;-70
2022/11/19 11:56:49;;;;;;;36.45;16.33;;;;;;;2.93;100.00;99490.22;4389673;32;35496;-70
2022/11/19 11:59:36;;;;;;;35.80;17.65;;;;;;;2.90;100.00;99495.34;4389013;32;34938;-70
2022/11/19 12:02:31;;;;;;;36.20;18.05;;;;;;;2.70;100.00;99496.88;4388198;32;32417;-69
2022/11/19 12:05:17;;;;;;;32.75;15.70;;;;;;;2.69;100.00;99506.06;4380448;32;34618;-70
2022/11/19 12:08:16;;;;;;;42.65;18.48;;;;;;;3.27;100.00;99499.81;4391223;32;35933;-70
2022/11/19 12:11:23;;;;;;;32.28;15.50;;;;;;;3.38;100.00;99501.47;4379881;32;35138;-69
2022/11/19 12:14:10;;;;;;;49.22;25.45;;;;;;;3.59;100.00;99492.31;4389220;32;34704;-69
2022/11/19 12:17:15;;;;;;;72.30;30.12;;;;;;;3.63;100.00;99484.47;4389125;32;35273;-70
2022/11/19 12:20:16;;;;;;;35.03;17.50;;;;;;;3.67;100.00;99487.44;4390717;32;36809;-70
2022/11/19 12:23:18;;;;;;;49.45;22.15;;;;;;;3.93;99.04;99480.16;4390724;32;35043;-69
2022/11/19 12:26:20;;;;;;;46.22;21.17;;;;;;;4.69;97.48;99477.31;4389687;32;34648;-69
2022/11/19 12:29:44;;;;;;;36.38;17.83;;;;;;;4.01;98.96;99476.88;4379552;32;34380;-70
2022/11/19 12:32:57;;;;;;;36.42;17.87;;;;;;;4.48;93.62;99470.34;4371892;32;33297;-70
2022/11/19 12:36:18;;;;;;;39.78;17.92;;;;;;;4.62;91.71;99459.72;4378482;32;34475;-69
2022/11/19 12:39:21;;;;;;;37.35;17.60;;;;;;;4.42;93.50;99460.59;4390207;32;34074;-69
2022/11/19 12:42:21;;;;;;;53.55;24.60;;;;;;;3.79;97.36;99458.19;4379806;32;33178;-69
2022/11/19 12:45:42;;;;;;;91.43;34.95;;;;;;;4.00;95.73;99442.75;4381398;32;34651;-69
2022/11/19 12:49:02;;;;;;;45.65;20.62;;;;;;;4.29;95.53;99451.09;4390775;32;33306;-69
2022/11/19 12:52:11;;;;;;;32.85;15.73;;;;;;;3.95;96.42;99462.50;4376637;32;33411;-68
2022/11/19 12:55:23;;;;;;;46.85;21.45;;;;;;;3.88;97.27;99470.13;4390233;32;34647;-71
2022/11/19 12:58:20;;;;;;;35.13;15.90;;;;;;;3.73;97.64;99470.09;4389351;32;35339;-69
2022/11/19 13:01:19;;;;;;;31.20;15.18;;;;;;;4.00;95.62;99467.13;4379593;32;33932;-69
2022/11/19 13:04:39;;;;;;;42.50;19.77;;;;;;;4.58;92.39;99486.59;4389027;32;35212;-69
2022/11/19 13:07:33;;;;;;;30.92;15.82;;;;;;;4.54;94.10;99479.28;4386563;32;35604;-69
2022/11/19 13:10:54;;;;;;;35.42;16.60;;;;;;;4.35;95.35;99465.47;4381380;32;33155;-69
2022/11/19 13:13:46;;;;;;;38.03;16.98;;;;;;;4.16;95.62;99471.47;4386747;32;35121;-69
2022/11/19 13:16:38;;;;;;;36.90;18.00;;;;;;;4.40;94.67;99460.84;4380011;32;35068;-68
2022/11/19 13:19:31;;;;;;;43.35;20.05;;;;;;;5.06;93.15;99470.66;4390450;32;34159;-68
2022/11/19 13:22:22;;;;;;;38.80;18.25;;;;;;;4.27;91.45;99475.00;4390223;32;34902;-68
2022/11/19 13:25:14;;;;;;;31.25;15.85;;;;;;;4.06;95.01;99480.41;4389131;32;34689;-69
2022/11/19 13:28:01;;;;;;;35.70;16.60;;;;;;;4.53;93.96;99496.66;4390258;32;35660;-69
2022/11/19 13:30:50;;;;;;;56.08;26.42;;;;;;;4.50;91.97;99490.69;4388809;32;34410;-69
2022/11/19 13:33:48;;;;;;;48.67;22.37;;;;;;;3.92;94.67;99484.75;4377828;32;35001;-69
2022/11/19 13:36:39;;;;;;;31.42;16.67;;;;;;;4.01;96.42;99485.84;4392108;32;34364;-69
2022/11/19 13:39:32;;;;;;;39.08;19.10;;;;;;;3.93;96.70;99491.81;4384324;32;33993;-69
2022/11/19 13:45:25;;;;;;;35.35;18.77;;;;;;;3.98;98.82;99494.50;4393298;32;34571;-69
2022/11/19 13:48:25;;;;;;;33.58;17.65;;;;;;;4.61;93.61;99501.50;4394060;32;35749;-69
2022/11/19 13:51:21;;;;;;;33.58;16.02;;;;;;;4.62;93.71;99503.13;4383183;32;34222;-69
2022/11/19 13:54:08;;;;;;;35.47;17.20;;;;;;;4.48;93.67;99517.25;4392452;32;34674;-69
2022/11/19 13:56:56;;;;;;;97.88;34.42;;;;;;;4.67;94.02;99505.84;4389966;32;33681;-68
2022/11/19 13:59:45;;;;;;;122.55;44.22;;;;;;;4.13;98.00;99509.97;4391081;32;35516;-69
2022/11/19 14:03:16;;;;;;;76.55;30.40;;;;;;;4.39;95.61;99502.62;4384047;32;34290;-70